Johnson, Minnesota
Current Conditions -  °F | °C
As of 3:16 AM on Monday 22 Dec 2014 (Local Time) from KETH Reporting Station
Haze Haze  
Wind Chill: 25°   Ceiling: 500
Heat Index: 34°   Visibility: 2.5mi
Dew Point: 32°   Wind: 12mph
Humidity: 93%   Direction: 120°ESE
Pressure: 29.52"   Gusts: NA
Location:  45.6628°N, 96.4177°W
Report Text: KETH 220916Z AUTO 12010KT 2 1/2SM BR OVC005 01/00 A2952 RMK AO2
Loading
Personal Weather Stations






























Interactive Weather Map New forecast layout! Learn more

10-Day Weather Forecast

Advertisements
Track Severe Weather on mobile